sensor_id;sensor_type;location;lat;lon;timestamp;P1;durP1;ratioP1;P2;durP2;ratioP2
26391;SDS011;14572;43.120;1.178;2023-07-13T00:02:13;6.47;;;1.83;;
26391;SDS011;14572;43.120;1.178;2023-07-13T00:04:40;5.30;;;2.03;;
26391;SDS011;14572;43.120;1.178;2023-07-13T00:07:07;10.38;;;2.03;;
26391;SDS011;14572;43.120;1.178;2023-07-13T00:09:34;2.03;;;1.38;;
26391;SDS011;14572;43.120;1.178;2023-07-13T00:12:01;1.80;;;1.23;;
26391;SDS011;14572;43.120;1.178;2023-07-13T00:14:29;3.22;;;1.63;;
26391;SDS011;14572;43.120;1.178;2023-07-13T00:16:56;4.18;;;2.00;;
26391;SDS011;14572;43.120;1.178;2023-07-13T00:19:27;2.70;;;1.60;;
26391;SDS011;14572;43.120;1.178;2023-07-13T00:21:54;4.28;;;1.95;;
26391;SDS011;14572;43.120;1.178;2023-07-13T00:24:21;3.28;;;1.70;;
26391;SDS011;14572;43.120;1.178;2023-07-13T00:26:49;5.18;;;1.75;;
26391;SDS011;14572;43.120;1.178;2023-07-13T00:29:16;4.22;;;2.10;;
26391;SDS011;14572;43.120;1.178;2023-07-13T00:31:43;1.98;;;1.77;;
26391;SDS011;14572;43.120;1.178;2023-07-13T00:34:11;2.78;;;2.00;;
26391;SDS011;14572;43.120;1.178;2023-07-13T00:36:39;4.75;;;1.70;;
26391;SDS011;14572;43.120;1.178;2023-07-13T00:39:07;2.85;;;1.80;;
26391;SDS011;14572;43.120;1.178;2023-07-13T00:41:34;5.15;;;2.22;;
26391;SDS011;14572;43.120;1.178;2023-07-13T00:44:02;2.92;;;1.70;;
26391;SDS011;14572;43.120;1.178;2023-07-13T00:46:29;3.70;;;1.75;;
26391;SDS011;14572;43.120;1.178;2023-07-13T00:48:58;4.35;;;2.17;;
26391;SDS011;14572;43.120;1.178;2023-07-13T00:51:28;1.88;;;1.63;;
26391;SDS011;14572;43.120;1.178;2023-07-13T00:54:00;3.47;;;1.75;;
26391;SDS011;14572;43.120;1.178;2023-07-13T00:56:30;4.80;;;1.98;;
26391;SDS011;14572;43.120;1.178;2023-07-13T00:58:58;3.80;;;1.85;;
26391;SDS011;14572;43.120;1.178;2023-07-13T01:01:26;5.35;;;1.63;;
26391;SDS011;14572;43.120;1.178;2023-07-13T01:03:53;7.88;;;1.85;;
26391;SDS011;14572;43.120;1.178;2023-07-13T01:06:22;6.22;;;1.55;;
26391;SDS011;14572;43.120;1.178;2023-07-13T01:08:49;3.33;;;1.52;;
26391;SDS011;14572;43.120;1.178;2023-07-13T01:11:20;4.85;;;2.15;;
26391;SDS011;14572;43.120;1.178;2023-07-13T01:13:48;3.03;;;1.80;;
26391;SDS011;14572;43.120;1.178;2023-07-13T01:16:22;2.97;;;1.80;;
26391;SDS011;14572;43.120;1.178;2023-07-13T01:18:51;4.20;;;2.30;;
26391;SDS011;14572;43.120;1.178;2023-07-13T01:21:20;3.42;;;2.05;;
26391;SDS011;14572;43.120;1.178;2023-07-13T01:23:47;3.28;;;2.05;;
26391;SDS011;14572;43.120;1.178;2023-07-13T01:26:14;5.15;;;2.10;;
26391;SDS011;14572;43.120;1.178;2023-07-13T01:28:41;4.30;;;2.22;;
26391;SDS011;14572;43.120;1.178;2023-07-13T01:31:08;4.22;;;1.88;;
26391;SDS011;14572;43.120;1.178;2023-07-13T01:33:36;7.28;;;2.15;;
26391;SDS011;14572;43.120;1.178;2023-07-13T01:36:03;4.57;;;2.13;;
26391;SDS011;14572;43.120;1.178;2023-07-13T01:38:32;4.93;;;1.98;;
26391;SDS011;14572;43.120;1.178;2023-07-13T01:41:00;5.72;;;2.00;;
26391;SDS011;14572;43.120;1.178;2023-07-13T01:43:27;7.10;;;2.40;;
26391;SDS011;14572;43.120;1.178;2023-07-13T01:45:54;3.90;;;2.22;;
26391;SDS011;14572;43.120;1.178;2023-07-13T01:48:21;5.18;;;2.38;;
26391;SDS011;14572;43.120;1.178;2023-07-13T01:50:48;4.13;;;2.00;;
26391;SDS011;14572;43.120;1.178;2023-07-13T01:53:15;4.88;;;2.40;;
26391;SDS011;14572;43.120;1.178;2023-07-13T01:55:43;4.60;;;2.88;;
26391;SDS011;14572;43.120;1.178;2023-07-13T01:58:10;6.03;;;2.05;;
26391;SDS011;14572;43.120;1.178;2023-07-13T02:00:37;4.10;;;2.38;;
26391;SDS011;14572;43.120;1.178;2023-07-13T02:03:04;5.45;;;2.38;;
26391;SDS011;14572;43.120;1.178;2023-07-13T02:05:31;6.22;;;2.67;;
26391;SDS011;14572;43.120;1.178;2023-07-13T02:07:59;4.63;;;2.40;;
26391;SDS011;14572;43.120;1.178;2023-07-13T02:10:26;4.35;;;2.22;;
26391;SDS011;14572;43.120;1.178;2023-07-13T02:12:55;5.25;;;2.28;;
26391;SDS011;14572;43.120;1.178;2023-07-13T02:15:22;4.43;;;2.22;;
26391;SDS011;14572;43.120;1.178;2023-07-13T02:17:49;4.28;;;2.05;;
26391;SDS011;14572;43.120;1.178;2023-07-13T02:20:16;3.78;;;2.42;;
26391;SDS011;14572;43.120;1.178;2023-07-13T02:22:43;4.40;;;2.60;;
26391;SDS011;14572;43.120;1.178;2023-07-13T02:25:10;2.90;;;2.20;;
26391;SDS011;14572;43.120;1.178;2023-07-13T02:27:37;4.65;;;2.42;;
26391;SDS011;14572;43.120;1.178;2023-07-13T02:30:06;3.35;;;2.17;;
26391;SDS011;14572;43.120;1.178;2023-07-13T02:32:34;4.40;;;2.33;;
26391;SDS011;14572;43.120;1.178;2023-07-13T02:35:01;5.88;;;2.10;;
26391;SDS011;14572;43.120;1.178;2023-07-13T02:37:29;2.83;;;2.55;;
26391;SDS011;14572;43.120;1.178;2023-07-13T02:39:56;4.82;;;2.70;;
26391;SDS011;14572;43.120;1.178;2023-07-13T02:42:24;4.63;;;2.63;;
26391;SDS011;14572;43.120;1.178;2023-07-13T02:44:51;4.55;;;3.15;;
26391;SDS011;14572;43.120;1.178;2023-07-13T02:47:19;4.03;;;2.83;;
26391;SDS011;14572;43.120;1.178;2023-07-13T02:49:46;4.07;;;3.20;;
26391;SDS011;14572;43.120;1.178;2023-07-13T02:52:13;6.45;;;2.75;;
26391;SDS011;14572;43.120;1.178;2023-07-13T02:54:40;4.10;;;3.00;;
26391;SDS011;14572;43.120;1.178;2023-07-13T02:57:07;4.95;;;2.97;;
26391;SDS011;14572;43.120;1.178;2023-07-13T02:59:34;5.38;;;3.40;;
26391;SDS011;14572;43.120;1.178;2023-07-13T03:02:02;4.93;;;2.67;;
26391;SDS011;14572;43.120;1.178;2023-07-13T03:04:30;4.80;;;3.10;;
26391;SDS011;14572;43.120;1.178;2023-07-13T03:06:57;6.28;;;2.30;;
26391;SDS011;14572;43.120;1.178;2023-07-13T03:09:24;4.82;;;3.00;;
26391;SDS011;14572;43.120;1.178;2023-07-13T03:11:52;3.85;;;2.70;;
26391;SDS011;14572;43.120;1.178;2023-07-13T03:14:20;4.32;;;3.20;;
26391;SDS011;14572;43.120;1.178;2023-07-13T03:16:48;5.85;;;3.20;;
26391;SDS011;14572;43.120;1.178;2023-07-13T03:19:17;6.80;;;2.80;;
26391;SDS011;14572;43.120;1.178;2023-07-13T03:21:46;4.78;;;3.63;;
26391;SDS011;14572;43.120;1.178;2023-07-13T03:24:13;5.38;;;3.00;;
26391;SDS011;14572;43.120;1.178;2023-07-13T03:26:40;7.47;;;3.28;;
26391;SDS011;14572;43.120;1.178;2023-07-13T03:29:07;4.22;;;3.17;;
26391;SDS011;14572;43.120;1.178;2023-07-13T03:31:35;5.13;;;3.00;;
26391;SDS011;14572;43.120;1.178;2023-07-13T03:34:02;5.07;;;3.20;;
26391;SDS011;14572;43.120;1.178;2023-07-13T03:36:30;8.43;;;3.28;;
26391;SDS011;14572;43.120;1.178;2023-07-13T03:38:59;5.43;;;3.45;;
26391;SDS011;14572;43.120;1.178;2023-07-13T03:41:28;7.18;;;3.63;;
26391;SDS011;14572;43.120;1.178;2023-07-13T03:43:55;7.82;;;3.47;;
26391;SDS011;14572;43.120;1.178;2023-07-13T03:46:22;6.07;;;3.50;;
26391;SDS011;14572;43.120;1.178;2023-07-13T03:48:49;5.50;;;3.38;;
26391;SDS011;14572;43.120;1.178;2023-07-13T03:51:17;13.32;;;3.67;;
26391;SDS011;14572;43.120;1.178;2023-07-13T03:53:45;7.50;;;3.67;;
26391;SDS011;14572;43.120;1.178;2023-07-13T03:56:15;8.10;;;3.35;;
26391;SDS011;14572;43.120;1.178;2023-07-13T03:58:44;4.18;;;3.30;;
26391;SDS011;14572;43.120;1.178;2023-07-13T04:01:12;6.03;;;3.42;;
26391;SDS011;14572;43.120;1.178;2023-07-13T04:03:39;7.00;;;3.55;;
26391;SDS011;14572;43.120;1.178;2023-07-13T04:06:07;9.52;;;3.28;;
26391;SDS011;14572;43.120;1.178;2023-07-13T04:08:40;5.97;;;3.30;;
26391;SDS011;14572;43.120;1.178;2023-07-13T04:11:07;5.43;;;3.17;;
26391;SDS011;14572;43.120;1.178;2023-07-13T04:13:36;7.35;;;3.47;;
26391;SDS011;14572;43.120;1.178;2023-07-13T04:16:03;7.25;;;3.20;;
26391;SDS011;14572;43.120;1.178;2023-07-13T04:18:30;5.97;;;3.40;;
26391;SDS011;14572;43.120;1.178;2023-07-13T04:20:57;7.57;;;3.50;;
26391;SDS011;14572;43.120;1.178;2023-07-13T04:23:24;10.60;;;3.38;;
26391;SDS011;14572;43.120;1.178;2023-07-13T04:25:52;8.40;;;3.30;;
26391;SDS011;14572;43.120;1.178;2023-07-13T04:28:19;7.38;;;3.15;;
26391;SDS011;14572;43.120;1.178;2023-07-13T04:30:48;7.15;;;3.00;;
26391;SDS011;14572;43.120;1.178;2023-07-13T04:33:15;7.20;;;2.85;;
26391;SDS011;14572;43.120;1.178;2023-07-13T04:35:43;6.57;;;3.17;;
26391;SDS011;14572;43.120;1.178;2023-07-13T04:38:11;7.28;;;3.65;;
26391;SDS011;14572;43.120;1.178;2023-07-13T04:40:40;10.35;;;3.42;;
26391;SDS011;14572;43.120;1.178;2023-07-13T04:43:09;5.93;;;3.20;;
26391;SDS011;14572;43.120;1.178;2023-07-13T04:45:36;6.70;;;3.00;;
26391;SDS011;14572;43.120;1.178;2023-07-13T04:48:05;7.30;;;3.35;;
26391;SDS011;14572;43.120;1.178;2023-07-13T04:50:32;4.55;;;2.90;;
26391;SDS011;14572;43.120;1.178;2023-07-13T04:52:59;7.72;;;3.42;;
26391;SDS011;14572;43.120;1.178;2023-07-13T04:55:26;7.13;;;3.50;;
26391;SDS011;14572;43.120;1.178;2023-07-13T04:57:55;6.22;;;3.60;;
26391;SDS011;14572;43.120;1.178;2023-07-13T05:00:23;6.68;;;3.60;;
26391;SDS011;14572;43.120;1.178;2023-07-13T05:02:51;7.90;;;3.25;;
26391;SDS011;14572;43.120;1.178;2023-07-13T05:05:19;9.98;;;3.80;;
26391;SDS011;14572;43.120;1.178;2023-07-13T05:07:46;10.23;;;3.58;;
26391;SDS011;14572;43.120;1.178;2023-07-13T05:10:13;4.55;;;3.60;;
26391;SDS011;14572;43.120;1.178;2023-07-13T05:12:41;8.93;;;3.50;;
26391;SDS011;14572;43.120;1.178;2023-07-13T05:15:08;7.38;;;3.88;;
26391;SDS011;14572;43.120;1.178;2023-07-13T05:17:35;6.03;;;3.47;;
26391;SDS011;14572;43.120;1.178;2023-07-13T05:20:04;9.20;;;3.67;;
26391;SDS011;14572;43.120;1.178;2023-07-13T05:22:33;10.05;;;4.15;;
26391;SDS011;14572;43.120;1.178;2023-07-13T05:25:01;6.25;;;4.15;;
26391;SDS011;14572;43.120;1.178;2023-07-13T05:27:28;6.40;;;4.20;;
26391;SDS011;14572;43.120;1.178;2023-07-13T05:29:55;4.80;;;3.53;;
26391;SDS011;14572;43.120;1.178;2023-07-13T05:32:22;5.95;;;3.65;;
26391;SDS011;14572;43.120;1.178;2023-07-13T05:34:49;5.68;;;3.85;;
26391;SDS011;14572;43.120;1.178;2023-07-13T05:37:16;8.55;;;3.65;;
26391;SDS011;14572;43.120;1.178;2023-07-13T05:39:45;6.28;;;3.42;;
26391;SDS011;14572;43.120;1.178;2023-07-13T05:42:12;6.53;;;3.53;;
26391;SDS011;14572;43.120;1.178;2023-07-13T05:44:39;7.47;;;3.83;;
26391;SDS011;14572;43.120;1.178;2023-07-13T05:47:06;6.40;;;3.92;;
26391;SDS011;14572;43.120;1.178;2023-07-13T05:49:33;8.07;;;3.75;;
26391;SDS011;14572;43.120;1.178;2023-07-13T05:52:00;6.30;;;3.80;;
26391;SDS011;14572;43.120;1.178;2023-07-13T05:54:27;8.20;;;4.18;;
26391;SDS011;14572;43.120;1.178;2023-07-13T05:56:56;4.60;;;3.78;;
26391;SDS011;14572;43.120;1.178;2023-07-13T05:59:23;11.43;;;4.22;;
26391;SDS011;14572;43.120;1.178;2023-07-13T06:01:51;6.30;;;3.50;;
26391;SDS011;14572;43.120;1.178;2023-07-13T06:04:18;8.40;;;3.78;;
26391;SDS011;14572;43.120;1.178;2023-07-13T06:06:46;6.43;;;3.70;;
26391;SDS011;14572;43.120;1.178;2023-07-13T06:09:13;8.65;;;3.75;;
26391;SDS011;14572;43.120;1.178;2023-07-13T06:11:40;3.85;;;3.45;;
26391;SDS011;14572;43.120;1.178;2023-07-13T06:14:08;7.78;;;3.38;;
26391;SDS011;14572;43.120;1.178;2023-07-13T06:16:36;6.38;;;3.30;;
26391;SDS011;14572;43.120;1.178;2023-07-13T06:19:03;7.57;;;3.67;;
26391;SDS011;14572;43.120;1.178;2023-07-13T06:21:30;9.07;;;3.60;;
26391;SDS011;14572;43.120;1.178;2023-07-13T06:23:57;4.80;;;3.28;;
26391;SDS011;14572;43.120;1.178;2023-07-13T06:26:24;6.20;;;5.57;;
26391;SDS011;14572;43.120;1.178;2023-07-13T06:28:51;5.47;;;3.22;;
26391;SDS011;14572;43.120;1.178;2023-07-13T06:31:20;4.55;;;3.17;;
26391;SDS011;14572;43.120;1.178;2023-07-13T06:33:47;4.55;;;2.95;;
26391;SDS011;14572;43.120;1.178;2023-07-13T06:36:14;6.47;;;2.88;;
26391;SDS011;14572;43.120;1.178;2023-07-13T06:38:41;6.60;;;3.30;;
26391;SDS011;14572;43.120;1.178;2023-07-13T06:41:08;4.60;;;3.03;;
26391;SDS011;14572;43.120;1.178;2023-07-13T06:43:35;6.90;;;2.85;;
26391;SDS011;14572;43.120;1.178;2023-07-13T06:46:02;4.70;;;2.85;;
26391;SDS011;14572;43.120;1.178;2023-07-13T06:48:31;10.35;;;3.38;;
26391;SDS011;14572;43.120;1.178;2023-07-13T06:50:59;6.35;;;2.90;;
26391;SDS011;14572;43.120;1.178;2023-07-13T06:53:27;9.50;;;3.90;;
26391;SDS011;14572;43.120;1.178;2023-07-13T06:55:55;6.75;;;3.20;;
26391;SDS011;14572;43.120;1.178;2023-07-13T06:58:22;6.03;;;2.88;;
26391;SDS011;14572;43.120;1.178;2023-07-13T07:00:50;3.95;;;2.78;;
26391;SDS011;14572;43.120;1.178;2023-07-13T07:03:17;4.50;;;3.17;;
26391;SDS011;14572;43.120;1.178;2023-07-13T07:05:46;4.45;;;3.83;;
26391;SDS011;14572;43.120;1.178;2023-07-13T07:08:13;5.30;;;3.00;;
26391;SDS011;14572;43.120;1.178;2023-07-13T07:10:40;5.93;;;3.35;;
26391;SDS011;14572;43.120;1.178;2023-07-13T07:13:08;7.07;;;3.90;;
26391;SDS011;14572;43.120;1.178;2023-07-13T07:15:35;6.10;;;3.33;;
26391;SDS011;14572;43.120;1.178;2023-07-13T07:18:02;7.43;;;3.28;;
26391;SDS011;14572;43.120;1.178;2023-07-13T07:20:29;7.70;;;3.47;;
26391;SDS011;14572;43.120;1.178;2023-07-13T07:22:59;7.30;;;3.25;;
26391;SDS011;14572;43.120;1.178;2023-07-13T07:25:26;5.10;;;3.67;;
26391;SDS011;14572;43.120;1.178;2023-07-13T07:27:57;7.80;;;3.78;;
26391;SDS011;14572;43.120;1.178;2023-07-13T07:30:24;10.32;;;3.53;;
26391;SDS011;14572;43.120;1.178;2023-07-13T07:32:51;5.30;;;3.15;;
26391;SDS011;14572;43.120;1.178;2023-07-13T07:35:18;6.82;;;3.25;;
26391;SDS011;14572;43.120;1.178;2023-07-13T07:37:45;5.65;;;2.90;;
26391;SDS011;14572;43.120;1.178;2023-07-13T07:40:14;5.05;;;2.90;;
26391;SDS011;14572;43.120;1.178;2023-07-13T07:42:41;9.25;;;3.20;;
26391;SDS011;14572;43.120;1.178;2023-07-13T07:45:08;4.38;;;3.03;;
26391;SDS011;14572;43.120;1.178;2023-07-13T07:47:36;7.35;;;2.88;;
26391;SDS011;14572;43.120;1.178;2023-07-13T07:50:03;5.63;;;3.05;;
26391;SDS011;14572;43.120;1.178;2023-07-13T07:52:31;6.13;;;3.05;;
26391;SDS011;14572;43.120;1.178;2023-07-13T07:54:58;8.45;;;3.28;;
26391;SDS011;14572;43.120;1.178;2023-07-13T07:57:27;6.75;;;2.65;;
26391;SDS011;14572;43.120;1.178;2023-07-13T07:59:54;5.45;;;2.90;;
26391;SDS011;14572;43.120;1.178;2023-07-13T08:02:21;4.25;;;2.40;;
26391;SDS011;14572;43.120;1.178;2023-07-13T08:04:48;6.05;;;2.50;;
26391;SDS011;14572;43.120;1.178;2023-07-13T08:07:15;4.22;;;2.45;;
26391;SDS011;14572;43.120;1.178;2023-07-13T08:09:42;6.38;;;2.58;;
26391;SDS011;14572;43.120;1.178;2023-07-13T08:12:09;5.05;;;2.78;;
26391;SDS011;14572;43.120;1.178;2023-07-13T08:14:37;7.45;;;2.60;;
26391;SDS011;14572;43.120;1.178;2023-07-13T08:17:04;5.57;;;1.88;;
26391;SDS011;14572;43.120;1.178;2023-07-13T08:19:32;4.10;;;2.00;;
26391;SDS011;14572;43.120;1.178;2023-07-13T08:21:59;7.25;;;1.88;;
26391;SDS011;14572;43.120;1.178;2023-07-13T08:24:26;3.97;;;1.45;;
26391;SDS011;14572;43.120;1.178;2023-07-13T08:26:53;4.00;;;1.63;;
26391;SDS011;14572;43.120;1.178;2023-07-13T08:29:20;4.03;;;1.63;;
26391;SDS011;14572;43.120;1.178;2023-07-13T08:31:49;3.67;;;1.15;;
26391;SDS011;14572;43.120;1.178;2023-07-13T08:34:16;5.80;;;1.50;;
26391;SDS011;14572;43.120;1.178;2023-07-13T08:36:43;3.85;;;1.50;;
26391;SDS011;14572;43.120;1.178;2023-07-13T08:39:10;2.47;;;1.17;;
26391;SDS011;14572;43.120;1.178;2023-07-13T08:41:38;7.00;;;1.45;;
26391;SDS011;14572;43.120;1.178;2023-07-13T08:44:06;6.45;;;1.90;;
26391;SDS011;14572;43.120;1.178;2023-07-13T08:46:40;4.03;;;2.15;;
26391;SDS011;14572;43.120;1.178;2023-07-13T08:49:10;3.92;;;1.13;;
26391;SDS011;14572;43.120;1.178;2023-07-13T08:51:41;3.88;;;1.38;;
26391;SDS011;14572;43.120;1.178;2023-07-13T08:54:12;2.83;;;1.27;;
26391;SDS011;14572;43.120;1.178;2023-07-13T08:56:45;2.72;;;1.45;;
26391;SDS011;14572;43.120;1.178;2023-07-13T08:59:13;3.67;;;1.13;;
26391;SDS011;14572;43.120;1.178;2023-07-13T09:04:39;4.90;;;1.23;;
26391;SDS011;14572;43.120;1.178;2023-07-13T09:07:12;6.20;;;1.30;;
26391;SDS011;14572;43.120;1.178;2023-07-13T09:09:46;6.55;;;1.45;;
26391;SDS011;14572;43.120;1.178;2023-07-13T09:12:23;2.45;;;1.50;;
26391;SDS011;14572;43.120;1.178;2023-07-13T09:14:53;3.75;;;1.58;;
26391;SDS011;14572;43.120;1.178;2023-07-13T09:17:23;5.43;;;1.63;;
26391;SDS011;14572;43.120;1.178;2023-07-13T09:19:57;2.30;;;1.90;;
26391;SDS011;14572;43.120;1.178;2023-07-13T09:22:26;6.72;;;1.70;;
26391;SDS011;14572;43.120;1.178;2023-07-13T09:24:57;6.13;;;1.70;;
26391;SDS011;14572;43.120;1.178;2023-07-13T09:27:29;3.03;;;1.70;;
26391;SDS011;14572;43.120;1.178;2023-07-13T09:30:01;3.85;;;1.77;;
26391;SDS011;14572;43.120;1.178;2023-07-13T09:32:31;5.80;;;1.52;;
26391;SDS011;14572;43.120;1.178;2023-07-13T09:34:59;4.05;;;1.90;;
26391;SDS011;14572;43.120;1.178;2023-07-13T09:37:29;3.60;;;1.55;;
26391;SDS011;14572;43.120;1.178;2023-07-13T09:39:58;6.28;;;1.85;;
26391;SDS011;14572;43.120;1.178;2023-07-13T09:42:26;2.17;;;1.50;;
26391;SDS011;14572;43.120;1.178;2023-07-13T09:44:54;4.07;;;1.52;;
26391;SDS011;14572;43.120;1.178;2023-07-13T09:47:22;2.85;;;1.55;;
26391;SDS011;14572;43.120;1.178;2023-07-13T09:49:54;2.70;;;1.40;;
26391;SDS011;14572;43.120;1.178;2023-07-13T09:52:25;6.35;;;1.55;;
26391;SDS011;14572;43.120;1.178;2023-07-13T09:54:53;3.08;;;1.58;;
26391;SDS011;14572;43.120;1.178;2023-07-13T09:57:25;4.63;;;1.52;;
26391;SDS011;14572;43.120;1.178;2023-07-13T09:59:53;3.15;;;1.70;;
26391;SDS011;14572;43.120;1.178;2023-07-13T10:02:25;4.97;;;2.17;;
26391;SDS011;14572;43.120;1.178;2023-07-13T10:04:57;2.72;;;1.50;;
26391;SDS011;14572;43.120;1.178;2023-07-13T10:07:26;6.20;;;1.58;;
26391;SDS011;14572;43.120;1.178;2023-07-13T10:09:54;2.45;;;1.45;;
26391;SDS011;14572;43.120;1.178;2023-07-13T10:12:21;2.40;;;1.42;;
26391;SDS011;14572;43.120;1.178;2023-07-13T10:14:50;3.20;;;1.70;;
26391;SDS011;14572;43.120;1.178;2023-07-13T10:17:21;2.80;;;1.23;;
26391;SDS011;14572;43.120;1.178;2023-07-13T10:19:55;2.78;;;1.67;;
26391;SDS011;14572;43.120;1.178;2023-07-13T10:22:27;3.47;;;1.60;;
26391;SDS011;14572;43.120;1.178;2023-07-13T10:24:58;4.95;;;1.45;;
26391;SDS011;14572;43.120;1.178;2023-07-13T10:27:28;3.00;;;1.30;;
26391;SDS011;14572;43.120;1.178;2023-07-13T10:29:59;2.65;;;1.42;;
26391;SDS011;14572;43.120;1.178;2023-07-13T10:32:29;1.83;;;1.30;;
26391;SDS011;14572;43.120;1.178;2023-07-13T10:34:56;3.35;;;1.40;;
26391;SDS011;14572;43.120;1.178;2023-07-13T10:37:29;1.63;;;1.13;;
26391;SDS011;14572;43.120;1.178;2023-07-13T10:40:11;3.50;;;1.30;;
26391;SDS011;14572;43.120;1.178;2023-07-13T10:42:41;1.30;;;1.10;;
26391;SDS011;14572;43.120;1.178;2023-07-13T10:45:14;4.25;;;1.52;;
26391;SDS011;14572;43.120;1.178;2023-07-13T10:47:42;2.83;;;1.40;;
26391;SDS011;14572;43.120;1.178;2023-07-13T10:50:12;2.72;;;1.30;;
26391;SDS011;14572;43.120;1.178;2023-07-13T10:52:46;4.32;;;1.58;;
26391;SDS011;14572;43.120;1.178;2023-07-13T10:55:31;2.78;;;1.23;;
26391;SDS011;14572;43.120;1.178;2023-07-13T10:58:03;2.55;;;1.15;;
26391;SDS011;14572;43.120;1.178;2023-07-13T11:00:43;3.13;;;1.10;;
26391;SDS011;14572;43.120;1.178;2023-07-13T11:03:13;8.40;;;1.40;;
26391;SDS011;14572;43.120;1.178;2023-07-13T11:05:43;2.03;;;1.33;;
26391;SDS011;14572;43.120;1.178;2023-07-13T11:08:16;2.13;;;1.17;;
26391;SDS011;14572;43.120;1.178;2023-07-13T11:10:51;3.80;;;1.40;;
26391;SDS011;14572;43.120;1.178;2023-07-13T11:16:37;3.85;;;1.38;;
26391;SDS011;14572;43.120;1.178;2023-07-13T11:19:27;2.88;;;1.10;;
26391;SDS011;14572;43.120;1.178;2023-07-13T11:22:01;3.70;;;1.13;;
26391;SDS011;14572;43.120;1.178;2023-07-13T11:24:33;3.65;;;1.20;;
26391;SDS011;14572;43.120;1.178;2023-07-13T11:27:21;2.13;;;1.25;;
26391;SDS011;14572;43.120;1.178;2023-07-13T11:29:49;4.13;;;1.20;;
26391;SDS011;14572;43.120;1.178;2023-07-13T11:32:23;2.53;;;1.20;;
26391;SDS011;14572;43.120;1.178;2023-07-13T11:34:52;3.20;;;1.27;;
26391;SDS011;14572;43.120;1.178;2023-07-13T11:37:20;1.65;;;1.30;;
26391;SDS011;14572;43.120;1.178;2023-07-13T11:39:50;2.95;;;1.52;;
26391;SDS011;14572;43.120;1.178;2023-07-13T11:42:18;3.17;;;1.30;;
26391;SDS011;14572;43.120;1.178;2023-07-13T11:44:48;2.45;;;1.30;;
26391;SDS011;14572;43.120;1.178;2023-07-13T11:47:17;2.55;;;1.35;;
26391;SDS011;14572;43.120;1.178;2023-07-13T11:49:48;2.00;;;1.52;;
26391;SDS011;14572;43.120;1.178;2023-07-13T11:52:17;3.60;;;1.42;;
26391;SDS011;14572;43.120;1.178;2023-07-13T11:54:46;3.80;;;1.42;;
26391;SDS011;14572;43.120;1.178;2023-07-13T11:57:23;3.58;;;1.50;;
26391;SDS011;14572;43.120;1.178;2023-07-13T11:59:51;1.80;;;1.20;;
26391;SDS011;14572;43.120;1.178;2023-07-13T12:02:27;3.05;;;1.50;;
26391;SDS011;14572;43.120;1.178;2023-07-13T12:04:56;2.20;;;1.27;;
26391;SDS011;14572;43.120;1.178;2023-07-13T12:07:23;2.90;;;1.20;;
26391;SDS011;14572;43.120;1.178;2023-07-13T12:09:50;4.18;;;1.35;;
26391;SDS011;14572;43.120;1.178;2023-07-13T12:12:18;1.30;;;1.20;;
26391;SDS011;14572;43.120;1.178;2023-07-13T12:14:52;1.50;;;1.30;;
26391;SDS011;14572;43.120;1.178;2023-07-13T12:17:21;1.23;;;1.13;;
26391;SDS011;14572;43.120;1.178;2023-07-13T12:19:50;2.50;;;1.20;;
26391;SDS011;14572;43.120;1.178;2023-07-13T12:22:18;2.88;;;1.60;;
26391;SDS011;14572;43.120;1.178;2023-07-13T12:24:48;5.68;;;1.60;;
26391;SDS011;14572;43.120;1.178;2023-07-13T12:27:18;1.48;;;1.30;;
26391;SDS011;14572;43.120;1.178;2023-07-13T12:29:53;4.82;;;1.10;;
26391;SDS011;14572;43.120;1.178;2023-07-13T12:32:25;3.08;;;1.42;;
26391;SDS011;14572;43.120;1.178;2023-07-13T12:34:53;3.90;;;1.25;;
26391;SDS011;14572;43.120;1.178;2023-07-13T12:37:21;2.20;;;1.15;;
26391;SDS011;14572;43.120;1.178;2023-07-13T12:39:48;3.47;;;1.40;;
26391;SDS011;14572;43.120;1.178;2023-07-13T12:42:19;2.97;;;1.40;;
26391;SDS011;14572;43.120;1.178;2023-07-13T12:44:49;2.60;;;1.33;;
26391;SDS011;14572;43.120;1.178;2023-07-13T12:47:19;2.45;;;1.27;;
26391;SDS011;14572;43.120;1.178;2023-07-13T12:49:47;3.47;;;1.20;;
26391;SDS011;14572;43.120;1.178;2023-07-13T12:52:17;2.05;;;1.38;;
26391;SDS011;14572;43.120;1.178;2023-07-13T12:54:52;1.30;;;1.20;;
26391;SDS011;14572;43.120;1.178;2023-07-13T12:57:22;3.67;;;1.52;;
26391;SDS011;14572;43.120;1.178;2023-07-13T12:59:52;2.25;;;1.30;;
26391;SDS011;14572;43.120;1.178;2023-07-13T13:02:23;2.28;;;1.27;;
26391;SDS011;14572;43.120;1.178;2023-07-13T13:04:57;2.58;;;1.30;;
26391;SDS011;14572;43.120;1.178;2023-07-13T13:07:24;2.55;;;1.30;;
26391;SDS011;14572;43.120;1.178;2023-07-13T13:09:52;4.13;;;1.20;;
26391;SDS011;14572;43.120;1.178;2023-07-13T13:12:20;2.10;;;1.35;;
26391;SDS011;14572;43.120;1.178;2023-07-13T13:14:47;2.55;;;1.20;;
26391;SDS011;14572;43.120;1.178;2023-07-13T13:17:18;2.60;;;1.30;;
26391;SDS011;14572;43.120;1.178;2023-07-13T13:19:47;5.00;;;1.42;;
26391;SDS011;14572;43.120;1.178;2023-07-13T13:22:15;1.70;;;1.60;;
26391;SDS011;14572;43.120;1.178;2023-07-13T13:24:42;3.67;;;1.30;;
26391;SDS011;14572;43.120;1.178;2023-07-13T13:27:12;1.73;;;1.20;;
26391;SDS011;14572;43.120;1.178;2023-07-13T13:29:42;3.03;;;1.50;;
26391;SDS011;14572;43.120;1.178;2023-07-13T13:32:11;4.35;;;1.48;;
26391;SDS011;14572;43.120;1.178;2023-07-13T13:34:39;2.13;;;1.40;;
26391;SDS011;14572;43.120;1.178;2023-07-13T13:37:11;2.13;;;1.33;;
26391;SDS011;14572;43.120;1.178;2023-07-13T13:39:43;2.65;;;1.42;;
26391;SDS011;14572;43.120;1.178;2023-07-13T13:42:10;2.53;;;1.25;;
26391;SDS011;14572;43.120;1.178;2023-07-13T13:44:37;3.13;;;1.33;;
26391;SDS011;14572;43.120;1.178;2023-07-13T13:47:07;3.97;;;1.67;;
26391;SDS011;14572;43.120;1.178;2023-07-13T13:49:46;2.30;;;1.20;;
26391;SDS011;14572;43.120;1.178;2023-07-13T13:52:15;3.03;;;1.50;;
26391;SDS011;14572;43.120;1.178;2023-07-13T13:54:42;2.25;;;1.20;;
26391;SDS011;14572;43.120;1.178;2023-07-13T13:57:09;1.92;;;1.30;;
26391;SDS011;14572;43.120;1.178;2023-07-13T13:59:37;2.88;;;1.40;;
26391;SDS011;14572;43.120;1.178;2023-07-13T14:02:07;2.08;;;1.17;;
26391;SDS011;14572;43.120;1.178;2023-07-13T14:07:18;5.05;;;1.60;;
26391;SDS011;14572;43.120;1.178;2023-07-13T14:09:45;2.63;;;1.40;;
26391;SDS011;14572;43.120;1.178;2023-07-13T14:12:13;3.00;;;1.23;;
26391;SDS011;14572;43.120;1.178;2023-07-13T14:14:40;2.28;;;1.40;;
26391;SDS011;14572;43.120;1.178;2023-07-13T14:17:09;2.25;;;1.40;;
26391;SDS011;14572;43.120;1.178;2023-07-13T14:19:47;4.68;;;1.40;;
26391;SDS011;14572;43.120;1.178;2023-07-13T14:22:16;1.33;;;1.23;;
26391;SDS011;14572;43.120;1.178;2023-07-13T14:24:45;3.53;;;1.20;;
26391;SDS011;14572;43.120;1.178;2023-07-13T14:27:12;2.90;;;1.55;;
26391;SDS011;14572;43.120;1.178;2023-07-13T14:29:39;2.25;;;1.50;;
26391;SDS011;14572;43.120;1.178;2023-07-13T14:32:08;4.00;;;1.50;;
26391;SDS011;14572;43.120;1.178;2023-07-13T14:34:37;3.90;;;1.48;;
26391;SDS011;14572;43.120;1.178;2023-07-13T14:37:04;2.75;;;1.60;;
26391;SDS011;14572;43.120;1.178;2023-07-13T14:39:32;1.80;;;1.15;;
26391;SDS011;14572;43.120;1.178;2023-07-13T14:42:00;3.70;;;1.50;;
26391;SDS011;14572;43.120;1.178;2023-07-13T14:44:29;2.90;;;1.67;;
26391;SDS011;14572;43.120;1.178;2023-07-13T14:46:57;5.43;;;1.40;;
26391;SDS011;14572;43.120;1.178;2023-07-13T14:49:26;2.63;;;1.25;;
26391;SDS011;14572;43.120;1.178;2023-07-13T14:51:54;2.53;;;1.00;;
26391;SDS011;14572;43.120;1.178;2023-07-13T14:54:23;3.42;;;1.63;;
26391;SDS011;14572;43.120;1.178;2023-07-13T14:56:50;1.48;;;1.30;;
26391;SDS011;14572;43.120;1.178;2023-07-13T14:59:19;2.90;;;1.48;;
26391;SDS011;14572;43.120;1.178;2023-07-13T15:01:46;2.53;;;1.48;;
26391;SDS011;14572;43.120;1.178;2023-07-13T15:04:14;3.00;;;1.40;;
26391;SDS011;14572;43.120;1.178;2023-07-13T15:06:54;2.58;;;1.55;;